sensor_id;sensor_type;location;lat;lon;timestamp;P1;durP1;ratioP1;P2;durP2;ratioP2
14789;SDS011;7486;51.010;10.366;2022-12-17T00:00:51;21.43;;;13.67;;
14789;SDS011;7486;51.010;10.366;2022-12-17T00:03:17;25.03;;;15.03;;
14789;SDS011;7486;51.010;10.366;2022-12-17T00:05:44;24.53;;;15.47;;
14789;SDS011;7486;51.010;10.366;2022-12-17T00:08:11;20.10;;;14.03;;
14789;SDS011;7486;51.010;10.366;2022-12-17T00:10:38;21.87;;;14.23;;
14789;SDS011;7486;51.010;10.366;2022-12-17T00:13:04;26.93;;;15.80;;
14789;SDS011;7486;51.010;10.366;2022-12-17T00:15:32;31.83;;;18.00;;
14789;SDS011;7486;51.010;10.366;2022-12-17T00:18:03;22.73;;;15.63;;
14789;SDS011;7486;51.010;10.366;2022-12-17T00:20:31;22.50;;;15.20;;
14789;SDS011;7486;51.010;10.366;2022-12-17T00:23:01;19.33;;;13.27;;
14789;SDS011;7486;51.010;10.366;2022-12-17T00:25:29;21.13;;;13.67;;
14789;SDS011;7486;51.010;10.366;2022-12-17T00:27:56;18.03;;;12.97;;
14789;SDS011;7486;51.010;10.366;2022-12-17T00:30:23;18.33;;;12.97;;
14789;SDS011;7486;51.010;10.366;2022-12-17T00:32:50;19.10;;;13.33;;
14789;SDS011;7486;51.010;10.366;2022-12-17T00:35:17;19.73;;;13.93;;
14789;SDS011;7486;51.010;10.366;2022-12-17T00:37:47;19.50;;;13.50;;
14789;SDS011;7486;51.010;10.366;2022-12-17T00:40:13;20.13;;;13.97;;
14789;SDS011;7486;51.010;10.366;2022-12-17T00:42:40;18.63;;;13.67;;
14789;SDS011;7486;51.010;10.366;2022-12-17T00:45:07;18.80;;;12.93;;
14789;SDS011;7486;51.010;10.366;2022-12-17T00:47:35;19.33;;;14.23;;
14789;SDS011;7486;51.010;10.366;2022-12-17T00:50:01;21.07;;;13.67;;
14789;SDS011;7486;51.010;10.366;2022-12-17T00:52:28;18.93;;;13.43;;
14789;SDS011;7486;51.010;10.366;2022-12-17T00:54:55;19.10;;;13.60;;
14789;SDS011;7486;51.010;10.366;2022-12-17T00:57:21;21.33;;;13.80;;
14789;SDS011;7486;51.010;10.366;2022-12-17T00:59:50;20.77;;;13.53;;
14789;SDS011;7486;51.010;10.366;2022-12-17T01:02:17;19.83;;;13.93;;
14789;SDS011;7486;51.010;10.366;2022-12-17T01:04:44;21.73;;;13.43;;
14789;SDS011;7486;51.010;10.366;2022-12-17T01:07:11;19.10;;;13.30;;
14789;SDS011;7486;51.010;10.366;2022-12-17T01:09:38;20.00;;;13.07;;
14789;SDS011;7486;51.010;10.366;2022-12-17T01:12:06;18.70;;;13.67;;
14789;SDS011;7486;51.010;10.366;2022-12-17T01:14:34;18.93;;;13.17;;
14789;SDS011;7486;51.010;10.366;2022-12-17T01:17:00;16.90;;;12.33;;
14789;SDS011;7486;51.010;10.366;2022-12-17T01:19:27;19.30;;;13.43;;
14789;SDS011;7486;51.010;10.366;2022-12-17T01:21:54;19.43;;;13.87;;
14789;SDS011;7486;51.010;10.366;2022-12-17T01:24:21;18.93;;;13.70;;
14789;SDS011;7486;51.010;10.366;2022-12-17T01:26:48;19.73;;;13.50;;
14789;SDS011;7486;51.010;10.366;2022-12-17T01:29:15;20.50;;;13.50;;
14789;SDS011;7486;51.010;10.366;2022-12-17T01:31:42;16.73;;;12.33;;
14789;SDS011;7486;51.010;10.366;2022-12-17T01:34:08;17.07;;;11.27;;
14789;SDS011;7486;51.010;10.366;2022-12-17T01:36:35;16.40;;;11.40;;
14789;SDS011;7486;51.010;10.366;2022-12-17T01:39:02;15.10;;;11.07;;
14789;SDS011;7486;51.010;10.366;2022-12-17T01:41:29;16.83;;;11.37;;
14789;SDS011;7486;51.010;10.366;2022-12-17T01:43:55;15.73;;;11.40;;
14789;SDS011;7486;51.010;10.366;2022-12-17T01:46:22;14.70;;;11.43;;
14789;SDS011;7486;51.010;10.366;2022-12-17T01:48:52;15.47;;;11.07;;
14789;SDS011;7486;51.010;10.366;2022-12-17T01:51:19;16.03;;;11.33;;
14789;SDS011;7486;51.010;10.366;2022-12-17T01:53:50;16.33;;;11.80;;
14789;SDS011;7486;51.010;10.366;2022-12-17T01:56:32;14.20;;;10.50;;
14789;SDS011;7486;51.010;10.366;2022-12-17T01:59:02;15.77;;;10.53;;
14789;SDS011;7486;51.010;10.366;2022-12-17T02:01:30;15.03;;;10.93;;
14789;SDS011;7486;51.010;10.366;2022-12-17T02:03:57;14.03;;;10.67;;
14789;SDS011;7486;51.010;10.366;2022-12-17T02:06:25;16.33;;;11.43;;
14789;SDS011;7486;51.010;10.366;2022-12-17T02:09:12;15.03;;;10.60;;
14789;SDS011;7486;51.010;10.366;2022-12-17T02:14:30;16.30;;;11.40;;
14789;SDS011;7486;51.010;10.366;2022-12-17T02:17:05;13.33;;;10.43;;
14789;SDS011;7486;51.010;10.366;2022-12-17T02:22:34;16.63;;;11.57;;
14789;SDS011;7486;51.010;10.366;2022-12-17T02:25:42;15.83;;;11.47;;
14789;SDS011;7486;51.010;10.366;2022-12-17T02:28:17;16.57;;;12.03;;
14789;SDS011;7486;51.010;10.366;2022-12-17T02:30:45;20.37;;;13.27;;
14789;SDS011;7486;51.010;10.366;2022-12-17T02:33:12;17.33;;;12.90;;
14789;SDS011;7486;51.010;10.366;2022-12-17T02:35:44;18.07;;;13.10;;
14789;SDS011;7486;51.010;10.366;2022-12-17T02:38:23;17.57;;;12.57;;
14789;SDS011;7486;51.010;10.366;2022-12-17T02:40:52;17.03;;;12.57;;
14789;SDS011;7486;51.010;10.366;2022-12-17T02:43:22;20.13;;;11.63;;
14789;SDS011;7486;51.010;10.366;2022-12-17T02:45:57;17.43;;;12.17;;
14789;SDS011;7486;51.010;10.366;2022-12-17T02:48:24;19.00;;;12.20;;
14789;SDS011;7486;51.010;10.366;2022-12-17T02:50:51;17.10;;;11.93;;
14789;SDS011;7486;51.010;10.366;2022-12-17T02:53:18;17.63;;;12.20;;
14789;SDS011;7486;51.010;10.366;2022-12-17T02:55:45;16.90;;;11.90;;
14789;SDS011;7486;51.010;10.366;2022-12-17T02:58:12;18.97;;;12.47;;
14789;SDS011;7486;51.010;10.366;2022-12-17T03:00:39;18.53;;;12.27;;
14789;SDS011;7486;51.010;10.366;2022-12-17T03:03:07;16.17;;;11.60;;
14789;SDS011;7486;51.010;10.366;2022-12-17T03:05:34;18.33;;;12.37;;
14789;SDS011;7486;51.010;10.366;2022-12-17T03:08:11;20.00;;;12.63;;
14789;SDS011;7486;51.010;10.366;2022-12-17T03:10:39;19.70;;;13.57;;
14789;SDS011;7486;51.010;10.366;2022-12-17T03:13:06;18.60;;;13.07;;
14789;SDS011;7486;51.010;10.366;2022-12-17T03:15:33;19.03;;;13.77;;
14789;SDS011;7486;51.010;10.366;2022-12-17T03:17:59;17.50;;;12.93;;
14789;SDS011;7486;51.010;10.366;2022-12-17T03:20:26;20.53;;;13.30;;
14789;SDS011;7486;51.010;10.366;2022-12-17T03:22:59;19.90;;;13.20;;
14789;SDS011;7486;51.010;10.366;2022-12-17T03:25:30;18.53;;;13.43;;
14789;SDS011;7486;51.010;10.366;2022-12-17T03:28:02;17.00;;;12.20;;
14789;SDS011;7486;51.010;10.366;2022-12-17T03:30:29;18.13;;;12.27;;
14789;SDS011;7486;51.010;10.366;2022-12-17T03:33:01;18.43;;;11.70;;
14789;SDS011;7486;51.010;10.366;2022-12-17T03:35:28;19.80;;;12.77;;
14789;SDS011;7486;51.010;10.366;2022-12-17T03:37:54;21.37;;;14.13;;
14789;SDS011;7486;51.010;10.366;2022-12-17T03:40:21;21.37;;;14.00;;
14789;SDS011;7486;51.010;10.366;2022-12-17T03:42:48;19.23;;;13.00;;
14789;SDS011;7486;51.010;10.366;2022-12-17T03:45:15;20.50;;;13.10;;
14789;SDS011;7486;51.010;10.366;2022-12-17T03:47:42;20.70;;;13.63;;
14789;SDS011;7486;51.010;10.366;2022-12-17T03:50:08;18.27;;;13.33;;
14789;SDS011;7486;51.010;10.366;2022-12-17T03:52:35;22.23;;;13.57;;
14789;SDS011;7486;51.010;10.366;2022-12-17T03:55:02;19.27;;;13.47;;
14789;SDS011;7486;51.010;10.366;2022-12-17T03:57:29;18.10;;;11.93;;
14789;SDS011;7486;51.010;10.366;2022-12-17T03:59:55;19.60;;;9.80;;
14789;SDS011;7486;51.010;10.366;2022-12-17T04:02:22;18.63;;;11.00;;
14789;SDS011;7486;51.010;10.366;2022-12-17T04:04:49;15.83;;;9.73;;
14789;SDS011;7486;51.010;10.366;2022-12-17T04:07:16;18.67;;;11.27;;
14789;SDS011;7486;51.010;10.366;2022-12-17T04:09:42;20.03;;;12.93;;
14789;SDS011;7486;51.010;10.366;2022-12-17T04:12:09;23.53;;;13.30;;
14789;SDS011;7486;51.010;10.366;2022-12-17T04:14:36;18.37;;;10.23;;
14789;SDS011;7486;51.010;10.366;2022-12-17T04:17:03;15.33;;;8.90;;
14789;SDS011;7486;51.010;10.366;2022-12-17T04:19:29;15.30;;;9.53;;
14789;SDS011;7486;51.010;10.366;2022-12-17T04:21:56;26.23;;;10.07;;
14789;SDS011;7486;51.010;10.366;2022-12-17T04:24:23;19.57;;;9.77;;
14789;SDS011;7486;51.010;10.366;2022-12-17T04:26:49;21.47;;;10.13;;
14789;SDS011;7486;51.010;10.366;2022-12-17T04:29:18;19.97;;;10.33;;
14789;SDS011;7486;51.010;10.366;2022-12-17T04:31:46;21.00;;;9.60;;
14789;SDS011;7486;51.010;10.366;2022-12-17T04:34:12;20.70;;;10.83;;
14789;SDS011;7486;51.010;10.366;2022-12-17T04:36:39;24.17;;;10.33;;
14789;SDS011;7486;51.010;10.366;2022-12-17T04:39:06;19.50;;;9.73;;
14789;SDS011;7486;51.010;10.366;2022-12-17T04:41:32;15.27;;;9.30;;
14789;SDS011;7486;51.010;10.366;2022-12-17T04:43:59;15.93;;;8.27;;
14789;SDS011;7486;51.010;10.366;2022-12-17T04:46:32;27.03;;;9.60;;
14789;SDS011;7486;51.010;10.366;2022-12-17T04:48:58;17.80;;;9.50;;
14789;SDS011;7486;51.010;10.366;2022-12-17T04:51:25;18.03;;;9.77;;
14789;SDS011;7486;51.010;10.366;2022-12-17T04:53:52;22.73;;;11.27;;
14789;SDS011;7486;51.010;10.366;2022-12-17T04:56:19;20.07;;;9.73;;
14789;SDS011;7486;51.010;10.366;2022-12-17T04:58:46;19.30;;;11.17;;
14789;SDS011;7486;51.010;10.366;2022-12-17T05:01:13;18.10;;;10.73;;
14789;SDS011;7486;51.010;10.366;2022-12-17T05:03:40;29.80;;;10.60;;
14789;SDS011;7486;51.010;10.366;2022-12-17T05:06:07;20.17;;;10.27;;
14789;SDS011;7486;51.010;10.366;2022-12-17T05:08:34;19.10;;;10.87;;
14789;SDS011;7486;51.010;10.366;2022-12-17T05:11:07;22.20;;;11.07;;
14789;SDS011;7486;51.010;10.366;2022-12-17T05:13:33;21.70;;;11.30;;
14789;SDS011;7486;51.010;10.366;2022-12-17T05:16:01;22.00;;;11.57;;
14789;SDS011;7486;51.010;10.366;2022-12-17T05:18:27;21.63;;;11.40;;
14789;SDS011;7486;51.010;10.366;2022-12-17T05:20:54;18.33;;;11.33;;
14789;SDS011;7486;51.010;10.366;2022-12-17T05:23:21;22.27;;;11.73;;
14789;SDS011;7486;51.010;10.366;2022-12-17T05:25:48;19.27;;;11.73;;
14789;SDS011;7486;51.010;10.366;2022-12-17T05:28:14;18.10;;;11.10;;
14789;SDS011;7486;51.010;10.366;2022-12-17T05:30:41;18.47;;;11.10;;
14789;SDS011;7486;51.010;10.366;2022-12-17T05:33:08;27.67;;;12.50;;
14789;SDS011;7486;51.010;10.366;2022-12-17T05:35:34;22.77;;;12.30;;
14789;SDS011;7486;51.010;10.366;2022-12-17T05:38:05;20.97;;;12.03;;
14789;SDS011;7486;51.010;10.366;2022-12-17T05:40:33;18.43;;;12.20;;
14789;SDS011;7486;51.010;10.366;2022-12-17T05:43:02;19.97;;;11.87;;
14789;SDS011;7486;51.010;10.366;2022-12-17T05:45:30;27.07;;;13.03;;
14789;SDS011;7486;51.010;10.366;2022-12-17T05:47:57;21.90;;;12.53;;
14789;SDS011;7486;51.010;10.366;2022-12-17T05:50:24;21.93;;;12.53;;
14789;SDS011;7486;51.010;10.366;2022-12-17T05:52:56;18.17;;;11.57;;
14789;SDS011;7486;51.010;10.366;2022-12-17T05:55:26;16.87;;;10.80;;
14789;SDS011;7486;51.010;10.366;2022-12-17T05:58:03;18.67;;;12.30;;
14789;SDS011;7486;51.010;10.366;2022-12-17T06:00:31;21.07;;;12.60;;
14789;SDS011;7486;51.010;10.366;2022-12-17T06:02:59;21.00;;;12.83;;
14789;SDS011;7486;51.010;10.366;2022-12-17T06:05:27;26.63;;;12.77;;
14789;SDS011;7486;51.010;10.366;2022-12-17T06:08:00;19.33;;;12.63;;
14789;SDS011;7486;51.010;10.366;2022-12-17T06:10:28;19.30;;;12.00;;
14789;SDS011;7486;51.010;10.366;2022-12-17T06:12:55;21.17;;;12.57;;
14789;SDS011;7486;51.010;10.366;2022-12-17T06:15:22;20.03;;;11.87;;
14789;SDS011;7486;51.010;10.366;2022-12-17T06:17:55;21.57;;;12.83;;
14789;SDS011;7486;51.010;10.366;2022-12-17T06:20:22;23.90;;;12.37;;
14789;SDS011;7486;51.010;10.366;2022-12-17T06:23:05;26.57;;;13.50;;
14789;SDS011;7486;51.010;10.366;2022-12-17T06:25:35;21.13;;;12.77;;
14789;SDS011;7486;51.010;10.366;2022-12-17T06:28:02;24.13;;;12.90;;
14789;SDS011;7486;51.010;10.366;2022-12-17T06:30:30;21.87;;;12.37;;
14789;SDS011;7486;51.010;10.366;2022-12-17T06:33:03;24.53;;;12.53;;
14789;SDS011;7486;51.010;10.366;2022-12-17T06:35:34;21.43;;;12.47;;
14789;SDS011;7486;51.010;10.366;2022-12-17T06:38:02;21.67;;;12.43;;
14789;SDS011;7486;51.010;10.366;2022-12-17T06:40:31;20.47;;;11.70;;
14789;SDS011;7486;51.010;10.366;2022-12-17T06:42:58;18.07;;;11.83;;
14789;SDS011;7486;51.010;10.366;2022-12-17T06:45:25;17.33;;;11.30;;
14789;SDS011;7486;51.010;10.366;2022-12-17T06:47:51;20.80;;;12.00;;
14789;SDS011;7486;51.010;10.366;2022-12-17T06:50:26;20.90;;;12.27;;
14789;SDS011;7486;51.010;10.366;2022-12-17T06:52:59;23.77;;;13.83;;
14789;SDS011;7486;51.010;10.366;2022-12-17T06:55:32;28.03;;;19.23;;
14789;SDS011;7486;51.010;10.366;2022-12-17T06:57:59;34.67;;;27.63;;
14789;SDS011;7486;51.010;10.366;2022-12-17T07:00:26;32.17;;;16.90;;
14789;SDS011;7486;51.010;10.366;2022-12-17T07:02:56;28.43;;;14.23;;
14789;SDS011;7486;51.010;10.366;2022-12-17T07:05:24;24.17;;;14.83;;
14789;SDS011;7486;51.010;10.366;2022-12-17T07:07:57;22.57;;;13.90;;
14789;SDS011;7486;51.010;10.366;2022-12-17T07:10:26;20.40;;;12.27;;
14789;SDS011;7486;51.010;10.366;2022-12-17T07:12:52;23.67;;;14.87;;
14789;SDS011;7486;51.010;10.366;2022-12-17T07:15:19;25.87;;;15.40;;
14789;SDS011;7486;51.010;10.366;2022-12-17T07:17:55;26.23;;;13.60;;
14789;SDS011;7486;51.010;10.366;2022-12-17T07:20:26;22.87;;;12.80;;
14789;SDS011;7486;51.010;10.366;2022-12-17T07:22:54;20.93;;;12.50;;
14789;SDS011;7486;51.010;10.366;2022-12-17T07:25:25;22.97;;;11.57;;
14789;SDS011;7486;51.010;10.366;2022-12-17T07:27:52;38.37;;;13.37;;
14789;SDS011;7486;51.010;10.366;2022-12-17T07:30:20;29.03;;;13.37;;
14789;SDS011;7486;51.010;10.366;2022-12-17T07:32:47;20.20;;;11.83;;
14789;SDS011;7486;51.010;10.366;2022-12-17T07:35:23;22.80;;;11.73;;
14789;SDS011;7486;51.010;10.366;2022-12-17T07:37:56;24.40;;;12.53;;
14789;SDS011;7486;51.010;10.366;2022-12-17T07:40:24;26.03;;;12.33;;
14789;SDS011;7486;51.010;10.366;2022-12-17T07:42:50;24.17;;;12.67;;
14789;SDS011;7486;51.010;10.366;2022-12-17T07:45:17;25.20;;;11.93;;
14789;SDS011;7486;51.010;10.366;2022-12-17T07:47:51;34.33;;;12.37;;
14789;SDS011;7486;51.010;10.366;2022-12-17T07:50:18;21.70;;;11.90;;
14789;SDS011;7486;51.010;10.366;2022-12-17T07:52:56;75.03;;;16.10;;
14789;SDS011;7486;51.010;10.366;2022-12-17T07:55:24;34.63;;;13.13;;
14789;SDS011;7486;51.010;10.366;2022-12-17T07:57:58;38.63;;;14.50;;
14789;SDS011;7486;51.010;10.366;2022-12-17T08:00:28;27.37;;;11.53;;
14789;SDS011;7486;51.010;10.366;2022-12-17T08:02:58;26.53;;;10.30;;
14789;SDS011;7486;51.010;10.366;2022-12-17T08:05:25;21.10;;;11.47;;
14789;SDS011;7486;51.010;10.366;2022-12-17T08:07:52;69.33;;;12.20;;
14789;SDS011;7486;51.010;10.366;2022-12-17T08:10:19;30.70;;;12.27;;
14789;SDS011;7486;51.010;10.366;2022-12-17T08:12:53;27.23;;;11.97;;
14789;SDS011;7486;51.010;10.366;2022-12-17T08:15:23;26.20;;;12.17;;
14789;SDS011;7486;51.010;10.366;2022-12-17T08:17:50;25.23;;;11.67;;
14789;SDS011;7486;51.010;10.366;2022-12-17T08:20:17;21.33;;;11.67;;
14789;SDS011;7486;51.010;10.366;2022-12-17T08:22:43;24.03;;;12.10;;
14789;SDS011;7486;51.010;10.366;2022-12-17T08:25:10;19.87;;;10.50;;
14789;SDS011;7486;51.010;10.366;2022-12-17T08:27:37;25.50;;;11.23;;
14789;SDS011;7486;51.010;10.366;2022-12-17T08:30:04;25.80;;;12.13;;
14789;SDS011;7486;51.010;10.366;2022-12-17T08:32:31;29.03;;;12.50;;
14789;SDS011;7486;51.010;10.366;2022-12-17T08:34:58;34.40;;;13.00;;
14789;SDS011;7486;51.010;10.366;2022-12-17T08:37:25;25.80;;;12.57;;
14789;SDS011;7486;51.010;10.366;2022-12-17T08:39:52;42.90;;;25.37;;
14789;SDS011;7486;51.010;10.366;2022-12-17T08:42:18;39.87;;;23.70;;
14789;SDS011;7486;51.010;10.366;2022-12-17T08:44:45;22.70;;;13.30;;
14789;SDS011;7486;51.010;10.366;2022-12-17T08:47:12;21.23;;;12.20;;
14789;SDS011;7486;51.010;10.366;2022-12-17T08:49:38;27.13;;;13.83;;
14789;SDS011;7486;51.010;10.366;2022-12-17T08:52:05;25.47;;;13.30;;
14789;SDS011;7486;51.010;10.366;2022-12-17T08:54:32;21.57;;;11.20;;
14789;SDS011;7486;51.010;10.366;2022-12-17T08:56:59;26.07;;;11.77;;
14789;SDS011;7486;51.010;10.366;2022-12-17T08:59:26;21.83;;;12.27;;
14789;SDS011;7486;51.010;10.366;2022-12-17T09:01:52;23.00;;;12.23;;
14789;SDS011;7486;51.010;10.366;2022-12-17T09:04:19;24.63;;;12.50;;
14789;SDS011;7486;51.010;10.366;2022-12-17T09:06:46;22.67;;;12.07;;
14789;SDS011;7486;51.010;10.366;2022-12-17T09:09:13;26.97;;;10.97;;
14789;SDS011;7486;51.010;10.366;2022-12-17T09:11:40;20.63;;;11.83;;
14789;SDS011;7486;51.010;10.366;2022-12-17T09:14:08;23.40;;;11.90;;
14789;SDS011;7486;51.010;10.366;2022-12-17T09:16:34;19.50;;;11.13;;
14789;SDS011;7486;51.010;10.366;2022-12-17T09:19:01;21.13;;;11.63;;
14789;SDS011;7486;51.010;10.366;2022-12-17T09:21:28;20.80;;;11.80;;
14789;SDS011;7486;51.010;10.366;2022-12-17T09:23:56;26.40;;;16.93;;
14789;SDS011;7486;51.010;10.366;2022-12-17T09:26:22;22.50;;;13.67;;
14789;SDS011;7486;51.010;10.366;2022-12-17T09:28:49;24.97;;;12.07;;
14789;SDS011;7486;51.010;10.366;2022-12-17T09:31:16;31.27;;;11.50;;
14789;SDS011;7486;51.010;10.366;2022-12-17T09:33:43;20.53;;;10.10;;
14789;SDS011;7486;51.010;10.366;2022-12-17T09:36:10;22.20;;;11.73;;
14789;SDS011;7486;51.010;10.366;2022-12-17T09:38:37;21.17;;;12.27;;
14789;SDS011;7486;51.010;10.366;2022-12-17T09:41:25;19.43;;;10.83;;
14789;SDS011;7486;51.010;10.366;2022-12-17T09:44:03;20.90;;;11.00;;
14789;SDS011;7486;51.010;10.366;2022-12-17T09:49:27;20.63;;;10.70;;
14789;SDS011;7486;51.010;10.366;2022-12-17T09:51:54;18.93;;;10.10;;
14789;SDS011;7486;51.010;10.366;2022-12-17T09:56:58;20.87;;;11.13;;
14789;SDS011;7486;51.010;10.366;2022-12-17T09:59:26;24.67;;;12.20;;
14789;SDS011;7486;51.010;10.366;2022-12-17T10:01:54;22.53;;;12.20;;
14789;SDS011;7486;51.010;10.366;2022-12-17T10:04:34;20.10;;;10.63;;
14789;SDS011;7486;51.010;10.366;2022-12-17T10:07:09;20.00;;;10.80;;
14789;SDS011;7486;51.010;10.366;2022-12-17T10:09:42;21.83;;;12.07;;
14789;SDS011;7486;51.010;10.366;2022-12-17T10:12:12;22.20;;;11.10;;
14789;SDS011;7486;51.010;10.366;2022-12-17T10:14:41;21.37;;;11.33;;
14789;SDS011;7486;51.010;10.366;2022-12-17T10:17:18;19.23;;;11.10;;
14789;SDS011;7486;51.010;10.366;2022-12-17T10:19:55;19.93;;;11.03;;
14789;SDS011;7486;51.010;10.366;2022-12-17T10:22:22;20.87;;;11.67;;
14789;SDS011;7486;51.010;10.366;2022-12-17T10:24:49;24.60;;;11.80;;
14789;SDS011;7486;51.010;10.366;2022-12-17T10:27:17;34.23;;;12.63;;
14789;SDS011;7486;51.010;10.366;2022-12-17T10:29:45;20.10;;;12.27;;
14789;SDS011;7486;51.010;10.366;2022-12-17T10:34:40;23.23;;;12.97;;
14789;SDS011;7486;51.010;10.366;2022-12-17T10:37:17;21.13;;;11.83;;
14789;SDS011;7486;51.010;10.366;2022-12-17T10:39:57;23.43;;;12.47;;
14789;SDS011;7486;51.010;10.366;2022-12-17T10:42:31;25.23;;;12.57;;
14789;SDS011;7486;51.010;10.366;2022-12-17T10:47:56;23.53;;;12.33;;
14789;SDS011;7486;51.010;10.366;2022-12-17T10:50:23;17.93;;;11.30;;
14789;SDS011;7486;51.010;10.366;2022-12-17T10:52:50;21.70;;;11.87;;
14789;SDS011;7486;51.010;10.366;2022-12-17T10:57:53;23.23;;;12.20;;
14789;SDS011;7486;51.010;10.366;2022-12-17T11:00:21;20.83;;;11.83;;
14789;SDS011;7486;51.010;10.366;2022-12-17T11:02:48;19.50;;;12.63;;
14789;SDS011;7486;51.010;10.366;2022-12-17T11:05:23;22.20;;;12.97;;
14789;SDS011;7486;51.010;10.366;2022-12-17T11:07:53;22.77;;;13.47;;
14789;SDS011;7486;51.010;10.366;2022-12-17T11:10:24;20.50;;;12.33;;
14789;SDS011;7486;51.010;10.366;2022-12-17T11:12:55;18.00;;;12.13;;
14789;SDS011;7486;51.010;10.366;2022-12-17T11:17:56;18.23;;;12.30;;
14789;SDS011;7486;51.010;10.366;2022-12-17T11:20:25;19.90;;;10.00;;
14789;SDS011;7486;51.010;10.366;2022-12-17T11:23:07;21.63;;;11.53;;
14789;SDS011;7486;51.010;10.366;2022-12-17T11:25:49;16.57;;;10.77;;
14789;SDS011;7486;51.010;10.366;2022-12-17T11:28:25;18.07;;;11.07;;
14789;SDS011;7486;51.010;10.366;2022-12-17T11:31:00;17.47;;;11.27;;
14789;SDS011;7486;51.010;10.366;2022-12-17T11:33:37;15.37;;;10.00;;
14789;SDS011;7486;51.010;10.366;2022-12-17T11:42:02;17.90;;;10.23;;
14789;SDS011;7486;51.010;10.366;2022-12-17T11:50:25;19.90;;;11.67;;
14789;SDS011;7486;51.010;10.366;2022-12-17T11:53:03;17.50;;;11.23;;
14789;SDS011;7486;51.010;10.366;2022-12-17T11:55:57;18.00;;;11.47;;
14789;SDS011;7486;51.010;10.366;2022-12-17T11:58:40;21.20;;;12.33;;
14789;SDS011;7486;51.010;10.366;2022-12-17T12:12:50;20.37;;;12.10;;
14789;SDS011;7486;51.010;10.366;2022-12-17T12:18:45;23.90;;;13.93;;
14789;SDS011;7486;51.010;10.366;2022-12-17T12:21:38;22.47;;;13.33;;
14789;SDS011;7486;51.010;10.366;2022-12-17T12:32:55;22.33;;;13.90;;
14789;SDS011;7486;51.010;10.366;2022-12-17T12:35:42;24.70;;;14.03;;
14789;SDS011;7486;51.010;10.366;2022-12-17T12:38:15;22.80;;;13.33;;
14789;SDS011;7486;51.010;10.366;2022-12-17T12:40:48;29.37;;;14.20;;
14789;SDS011;7486;51.010;10.366;2022-12-17T12:43:34;20.67;;;12.60;;
14789;SDS011;7486;51.010;10.366;2022-12-17T12:51:33;21.70;;;13.03;;
14789;SDS011;7486;51.010;10.366;2022-12-17T12:54:15;21.30;;;12.13;;
14789;SDS011;7486;51.010;10.366;2022-12-17T12:56:47;22.90;;;13.37;;
14789;SDS011;7486;51.010;10.366;2022-12-17T12:59:24;19.70;;;12.10;;
14789;SDS011;7486;51.010;10.366;2022-12-17T13:01:51;20.73;;;13.27;;
14789;SDS011;7486;51.010;10.366;2022-12-17T13:04:33;19.83;;;12.40;;
14789;SDS011;7486;51.010;10.366;2022-12-17T13:07:02;17.50;;;11.87;;
14789;SDS011;7486;51.010;10.366;2022-12-17T13:09:35;21.70;;;13.50;;
14789;SDS011;7486;51.010;10.366;2022-12-17T13:12:19;22.60;;;13.57;;
14789;SDS011;7486;51.010;10.366;2022-12-17T13:20:20;19.30;;;12.07;;
14789;SDS011;7486;51.010;10.366;2022-12-17T13:25:36;19.63;;;11.80;;
14789;SDS011;7486;51.010;10.366;2022-12-17T13:28:03;19.03;;;12.07;;
14789;SDS011;7486;51.010;10.366;2022-12-17T13:30:35;19.67;;;12.30;;
14789;SDS011;7486;51.010;10.366;2022-12-17T13:35:57;20.77;;;12.30;;
14789;SDS011;7486;51.010;10.366;2022-12-17T13:38:39;22.43;;;12.60;;
14789;SDS011;7486;51.010;10.366;2022-12-17T13:41:12;22.50;;;12.90;;
14789;SDS011;7486;51.010;10.366;2022-12-17T13:46:24;21.83;;;12.93;;
14789;SDS011;7486;51.010;10.366;2022-12-17T13:51:28;22.83;;;14.20;;
14789;SDS011;7486;51.010;10.366;2022-12-17T13:53:58;21.10;;;12.60;;
14789;SDS011;7486;51.010;10.366;2022-12-17T13:56:31;20.87;;;12.77;;
14789;SDS011;7486;51.010;10.366;2022-12-17T13:59:00;21.33;;;12.30;;
14789;SDS011;7486;51.010;10.366;2022-12-17T14:01:42;20.30;;;13.20;;
14789;SDS011;7486;51.010;10.366;2022-12-17T14:05:21;19.37;;;13.07;;
14789;SDS011;7486;51.010;10.366;2022-12-17T14:07:19;18.17;;;11.70;;
14789;SDS011;7486;51.010;10.366;2022-12-17T14:09:50;18.17;;;12.00;;
14789;SDS011;7486;51.010;10.366;2022-12-17T14:12:18;21.53;;;12.90;;
14789;SDS011;7486;51.010;10.366;2022-12-17T14:14:47;20.17;;;12.13;;
14789;SDS011;7486;51.010;10.366;2022-12-17T14:17:18;30.17;;;17.73;;
14789;SDS011;7486;51.010;10.366;2022-12-17T14:20:15;23.50;;;14.07;;
14789;SDS011;7486;51.010;10.366;2022-12-17T14:22:43;25.87;;;14.57;;
14789;SDS011;7486;51.010;10.366;2022-12-17T14:25:28;22.03;;;13.97;;
14789;SDS011;7486;51.010;10.366;2022-12-17T14:28:00;20.10;;;12.20;;
14789;SDS011;7486;51.010;10.366;2022-12-17T14:30:46;22.60;;;13.03;;
14789;SDS011;7486;51.010;10.366;2022-12-17T14:33:34;19.67;;;11.80;;
14789;SDS011;7486;51.010;10.366;2022-12-17T14:36:06;19.83;;;11.57;;
14789;SDS011;7486;51.010;10.366;2022-12-17T14:38:33;21.63;;;12.70;;
14789;SDS011;7486;51.010;10.366;2022-12-17T14:41:13;21.33;;;12.07;;
14789;SDS011;7486;51.010;10.366;2022-12-17T14:43:40;19.97;;;11.73;;
14789;SDS011;7486;51.010;10.366;2022-12-17T14:46:09;22.90;;;13.43;;
14789;SDS011;7486;51.010;10.366;2022-12-17T14:48:40;23.23;;;13.40;;
14789;SDS011;7486;51.010;10.366;2022-12-17T14:51:18;26.17;;;16.30;;
14789;SDS011;7486;51.010;10.366;2022-12-17T14:56:32;25.47;;;12.10;;
14789;SDS011;7486;51.010;10.366;2022-12-17T14:58:58;19.37;;;11.73;;
14789;SDS011;7486;51.010;10.366;2022-12-17T15:01:25;23.10;;;13.00;;
14789;SDS011;7486;51.010;10.366;2022-12-17T15:03:52;21.77;;;13.53;;
14789;SDS011;7486;51.010;10.366;2022-12-17T15:06:20;22.67;;;13.07;;
14789;SDS011;7486;51.010;10.366;2022-12-17T15:08:47;20.30;;;12.70;;
14789;SDS011;7486;51.010;10.366;2022-12-17T15:11:17;19.43;;;12.10;;
14789;SDS011;7486;51.010;10.366;2022-12-17T15:13:46;19.20;;;11.70;;
14789;SDS011;7486;51.010;10.366;2022-12-17T15:16:21;20.17;;;11.83;;
14789;SDS011;7486;51.010;10.366;2022-12-17T15:18:48;20.63;;;12.20;;
14789;SDS011;7486;51.010;10.366;2022-12-17T15:21:15;19.47;;;12.20;;
14789;SDS011;7486;51.010;10.366;2022-12-17T15:23:43;20.60;;;12.37;;
14789;SDS011;7486;51.010;10.366;2022-12-17T15:26:12;22.97;;;13.53;;
14789;SDS011;7486;51.010;10.366;2022-12-17T15:28:39;23.70;;;14.40;;
14789;SDS011;7486;51.010;10.366;2022-12-17T15:31:07;20.77;;;13.90;;
14789;SDS011;7486;51.010;10.366;2022-12-17T15:33:36;24.53;;;15.40;;
14789;SDS011;7486;51.010;10.366;2022-12-17T15:36:03;22.73;;;14.60;;
14789;SDS011;7486;51.010;10.366;2022-12-17T15:38:30;22.53;;;13.43;;
14789;SDS011;7486;51.010;10.366;2022-12-17T15:41:00;20.53;;;11.87;;
14789;SDS011;7486;51.010;10.366;2022-12-17T15:43:29;17.93;;;12.47;;
14789;SDS011;7486;51.010;10.366;2022-12-17T15:45:58;18.60;;;12.47;;
14789;SDS011;7486;51.010;10.366;2022-12-17T15:48:26;18.07;;;12.53;;
14789;SDS011;7486;51.010;10.366;2022-12-17T15:50:53;18.07;;;11.87;;
14789;SDS011;7486;51.010;10.366;2022-12-17T15:53:19;19.80;;;12.70;;
14789;SDS011;7486;51.010;10.366;2022-12-17T15:55:46;17.33;;;11.50;;
14789;SDS011;7486;51.010;10.366;2022-12-17T15:58:13;18.67;;;11.97;;